createdAt,value
2018-03-25T00:00:14.185Z,93.60
2018-03-25T00:02:41.686Z,93.60
2018-03-25T00:05:09.977Z,93.60
2018-03-25T00:07:37.515Z,93.60
2018-03-25T00:10:05.741Z,93.50
2018-03-25T00:12:33.254Z,93.50
2018-03-25T00:15:01.490Z,93.70
2018-03-25T00:17:29.002Z,93.70
2018-03-25T00:19:56.562Z,93.80
2018-03-25T00:22:24.125Z,93.80
2018-03-25T00:24:51.587Z,93.90
2018-03-25T00:27:19.090Z,94.10
2018-03-25T00:29:46.566Z,94.40
2018-03-25T00:32:14.078Z,94.30
2018-03-25T00:34:41.569Z,94.20
2018-03-25T00:37:09.047Z,94.20
2018-03-25T00:39:37.319Z,94.60
2018-03-25T00:42:05.551Z,94.50
2018-03-25T00:44:33.810Z,94.30
2018-03-25T00:47:01.348Z,94.30
2018-03-25T00:49:29.604Z,94.50
2018-03-25T00:51:57.090Z,94.50
2018-03-25T00:54:24.597Z,94.60
2018-03-25T00:56:52.063Z,94.60
2018-03-25T00:59:19.560Z,94.80
2018-03-25T01:01:47.036Z,95.10
2018-03-25T01:04:15.383Z,95.20
2018-03-25T01:06:43.610Z,94.80
2018-03-25T01:09:11.108Z,94.80
2018-03-25T01:11:38.605Z,94.70
2018-03-25T01:14:06.087Z,94.70
2018-03-25T01:16:33.575Z,94.70
2018-03-25T01:19:01.064Z,94.70
2018-03-25T01:21:28.646Z,94.90
2018-03-25T01:23:56.122Z,95.00
2018-03-25T01:26:23.620Z,95.00
2018-03-25T01:28:51.841Z,95.20
2018-03-25T01:31:19.345Z,95.20
2018-03-25T01:33:46.838Z,95.30
2018-03-25T01:36:14.310Z,95.60
2018-03-25T01:38:41.804Z,95.60
2018-03-25T01:41:09.269Z,95.50
2018-03-25T01:43:36.745Z,95.40
2018-03-25T01:46:04.983Z,95.40
2018-03-25T01:48:32.522Z,95.40
2018-03-25T01:50:59.990Z,95.30
2018-03-25T01:53:27.466Z,95.40
2018-03-25T01:55:55.030Z,95.50
2018-03-25T01:58:22.600Z,95.60
2018-03-25T02:00:50.063Z,95.60
2018-03-25T02:03:17.531Z,95.70
2018-03-25T02:05:45.779Z,95.80
2018-03-25T02:08:13.337Z,95.70
2018-03-25T02:10:40.902Z,95.90
2018-03-25T02:13:08.429Z,95.90
2018-03-25T02:15:35.946Z,95.90
2018-03-25T02:18:04.182Z,96.00
2018-03-25T02:20:32.427Z,96.00
2018-03-25T02:22:59.892Z,96.00
2018-03-25T02:25:27.409Z,96.00
2018-03-25T02:27:55.647Z,96.10
2018-03-25T02:30:23.117Z,96.10
2018-03-25T02:32:50.598Z,96.20
2018-03-25T02:35:18.824Z,96.30
2018-03-25T02:37:46.315Z,96.30
2018-03-25T02:40:13.868Z,96.30
2018-03-25T02:42:41.349Z,96.30
2018-03-25T02:45:09.586Z,96.30
2018-03-25T02:47:37.064Z,96.20
2018-03-25T02:50:04.545Z,96.30
2018-03-25T02:52:32.803Z,96.40
2018-03-25T02:55:00.373Z,96.40
2018-03-25T02:57:27.826Z,96.40
2018-03-25T02:59:55.310Z,96.70
2018-03-25T03:02:22.788Z,96.70
2018-03-25T03:04:50.286Z,96.80
2018-03-25T03:07:17.746Z,96.80
2018-03-25T03:09:45.256Z,96.90
2018-03-25T03:12:12.718Z,96.90
2018-03-25T03:14:40.297Z,97.00
2018-03-25T03:17:07.764Z,97.10
2018-03-25T03:19:35.253Z,97.20
2018-03-25T03:22:03.505Z,97.40
2018-03-25T03:24:30.965Z,97.10
2018-03-25T03:26:58.446Z,97.10
2018-03-25T03:29:26.690Z,97.20
2018-03-25T03:31:54.184Z,97.20
2018-03-25T03:34:22.406Z,97.40
2018-03-25T03:36:49.902Z,97.40
2018-03-25T03:39:17.369Z,97.40
2018-03-25T03:41:45.627Z,97.40
2018-03-25T03:44:13.117Z,97.40
2018-03-25T03:46:41.366Z,97.40
2018-03-25T03:49:08.930Z,97.40
2018-03-25T03:51:36.428Z,97.40
2018-03-25T03:54:03.922Z,97.40
2018-03-25T03:56:31.408Z,97.40
2018-03-25T03:58:59.678Z,97.60
2018-03-25T04:01:27.138Z,97.60
2018-03-25T04:03:54.636Z,97.50
2018-03-25T04:06:23.187Z,97.50
2018-03-25T04:08:51.433Z,97.40
2018-03-25T04:11:18.897Z,97.40
2018-03-25T04:13:46.386Z,97.50
2018-03-25T04:16:14.639Z,97.70
2018-03-25T04:18:42.097Z,97.60
2018-03-25T04:21:09.607Z,97.70
2018-03-25T04:23:37.070Z,97.60
2018-03-25T04:26:04.558Z,97.50
2018-03-25T04:28:32.043Z,97.60
2018-03-25T04:31:00.330Z,97.60
2018-03-25T04:33:28.553Z,97.60
2018-03-25T04:35:56.025Z,97.60
2018-03-25T04:38:23.523Z,97.60
2018-03-25T04:40:51.750Z,97.60
2018-03-25T04:43:19.236Z,97.60
2018-03-25T04:45:46.757Z,97.60
2018-03-25T04:48:14.249Z,97.60
2018-03-25T04:50:42.470Z,97.80
2018-03-25T04:53:09.983Z,97.80
2018-03-25T04:55:37.541Z,97.90
2018-03-25T04:58:05.937Z,97.80
2018-03-25T05:00:34.193Z,97.80
2018-03-25T05:03:04.613Z,97.70
2018-03-25T05:05:32.102Z,97.70
2018-03-25T05:08:00.336Z,97.90
2018-03-25T05:10:27.824Z,97.90
2018-03-25T05:12:55.299Z,98.00
2018-03-25T05:15:23.562Z,97.80
2018-03-25T05:17:51.802Z,97.90
2018-03-25T05:20:19.275Z,97.90
2018-03-25T05:22:46.774Z,98.00
2018-03-25T05:25:14.238Z,98.00
2018-03-25T05:27:41.721Z,98.10
2018-03-25T05:30:09.192Z,98.10
2018-03-25T05:32:36.702Z,98.10
2018-03-25T05:35:04.942Z,98.20
2018-03-25T05:37:32.505Z,98.20
2018-03-25T05:39:59.998Z,98.20
2018-03-25T05:42:27.476Z,98.20
2018-03-25T05:44:54.975Z,98.20
2018-03-25T05:47:22.437Z,98.20
2018-03-25T05:49:49.931Z,98.20
2018-03-25T05:52:17.406Z,98.20
2018-03-25T05:54:44.939Z,98.20
2018-03-25T05:57:13.159Z,98.20
2018-03-25T05:59:40.617Z,98.10
2018-03-25T06:02:08.153Z,98.10
2018-03-25T06:04:35.640Z,98.10
2018-03-25T06:07:03.134Z,98.10
2018-03-25T06:09:31.358Z,98.00
2018-03-25T06:11:58.853Z,98.00
2018-03-25T06:14:26.308Z,98.00
2018-03-25T06:16:53.803Z,98.00
2018-03-25T06:19:21.266Z,97.90
2018-03-25T06:21:48.746Z,97.90
2018-03-25T06:24:16.226Z,97.80
2018-03-25T06:26:43.721Z,97.70
2018-03-25T06:29:11.950Z,97.60
2018-03-25T06:31:39.454Z,97.60
2018-03-25T06:34:07.669Z,97.50
2018-03-25T06:36:35.150Z,97.40
2018-03-25T06:39:02.646Z,97.40
2018-03-25T06:41:30.898Z,97.20
2018-03-25T06:43:58.398Z,97.20
2018-03-25T06:46:25.855Z,97.00
2018-03-25T06:48:53.337Z,96.90
2018-03-25T06:51:20.798Z,96.80
2018-03-25T06:53:48.399Z,96.70
2018-03-25T06:56:15.876Z,96.60
2018-03-25T06:58:44.198Z,96.40
2018-03-25T07:01:11.672Z,96.40
2018-03-25T07:03:39.154Z,96.30
2018-03-25T07:06:07.383Z,96.00
2018-03-25T07:08:34.867Z,96.00
2018-03-25T07:11:02.342Z,95.90
2018-03-25T07:13:29.822Z,95.60
2018-03-25T07:15:57.323Z,95.60
2018-03-25T07:18:24.808Z,95.40
2018-03-25T07:20:52.289Z,95.30
2018-03-25T07:23:19.786Z,95.10
2018-03-25T07:25:47.298Z,94.90
2018-03-25T07:28:14.755Z,94.80
2018-03-25T07:30:43.023Z,94.30
2018-03-25T07:33:10.483Z,94.30
2018-03-25T07:35:38.747Z,94.10
2018-03-25T07:38:06.235Z,93.90
2018-03-25T07:40:34.462Z,93.40
2018-03-25T07:43:01.955Z,93.40
2018-03-25T07:45:29.412Z,93.00
2018-03-25T07:47:57.697Z,93.00
2018-03-25T07:50:25.948Z,92.80
2018-03-25T07:52:53.426Z,92.80
2018-03-25T07:55:20.898Z,92.40
2018-03-25T07:57:48.397Z,92.50
2018-03-25T08:00:15.852Z,92.10
2018-03-25T08:02:43.308Z,92.10
2018-03-25T08:05:10.813Z,91.80
2018-03-25T08:07:39.039Z,91.50
2018-03-25T08:10:06.546Z,91.50
2018-03-25T08:12:34.893Z,91.10
2018-03-25T08:15:02.399Z,91.10
2018-03-25T08:17:30.615Z,90.80
2018-03-25T08:19:58.110Z,90.80
2018-03-25T08:22:25.566Z,90.50
2018-03-25T08:24:53.843Z,90.00
2018-03-25T08:27:21.305Z,90.00
2018-03-25T08:29:49.586Z,89.30
2018-03-25T08:32:17.820Z,87.50
2018-03-25T08:34:45.288Z,87.40
2018-03-25T08:37:12.799Z,88.00
2018-03-25T08:39:40.274Z,87.90
2018-03-25T08:42:07.766Z,87.90
2018-03-25T08:44:35.233Z,87.50
2018-03-25T08:47:02.808Z,86.60
2018-03-25T08:49:31.030Z,85.50
2018-03-25T08:51:58.544Z,85.40
2018-03-25T08:54:26.767Z,83.70
2018-03-25T08:56:54.263Z,83.70
2018-03-25T08:59:21.770Z,82.90
2018-03-25T09:01:49.250Z,82.90
2018-03-25T09:04:16.728Z,81.70
2018-03-25T09:06:44.213Z,81.00
2018-03-25T09:09:12.483Z,80.20
2018-03-25T09:11:40.740Z,79.20
2018-03-25T09:14:08.201Z,79.20
2018-03-25T09:16:36.475Z,79.90
2018-03-25T09:19:03.933Z,79.20
2018-03-25T09:21:32.214Z,77.80
2018-03-25T09:23:59.786Z,77.30
2018-03-25T09:26:28.022Z,75.10
2018-03-25T09:28:55.551Z,75.10
2018-03-25T09:31:23.033Z,74.80
2018-03-25T09:33:50.540Z,74.90
2018-03-25T09:36:18.774Z,74.80
2018-03-25T09:38:46.269Z,74.80
2018-03-25T09:41:14.526Z,73.20
2018-03-25T09:43:42.059Z,73.20
2018-03-25T09:46:09.538Z,72.80
2018-03-25T09:48:37.065Z,73.30
2018-03-25T09:51:04.597Z,72.50
2018-03-25T09:53:32.106Z,71.20
2018-03-25T09:55:59.627Z,70.50
2018-03-25T09:58:27.191Z,69.50
2018-03-25T10:01:00.433Z,69.20
2018-03-25T10:03:30.935Z,70.40
2018-03-25T10:05:58.463Z,69.00
2018-03-25T10:08:26.055Z,67.90
2018-03-25T10:10:53.547Z,67.30
2018-03-25T10:13:21.091Z,66.80
2018-03-25T10:15:48.594Z,66.80
2018-03-25T10:18:16.066Z,65.70
2018-03-25T10:20:43.589Z,64.50
2018-03-25T10:23:11.848Z,62.20
2018-03-25T10:25:40.191Z,62.10
2018-03-25T10:28:07.703Z,62.90
2018-03-25T10:30:35.944Z,62.00
2018-03-25T10:33:03.447Z,62.00
2018-03-25T10:35:31.684Z,58.30
2018-03-25T10:37:59.224Z,58.20
2018-03-25T10:40:26.690Z,57.80
2018-03-25T10:42:54.214Z,57.70
2018-03-25T10:45:21.740Z,58.90
2018-03-25T10:47:50.453Z,54.70
2018-03-25T10:50:17.963Z,55.10
2018-03-25T10:52:45.487Z,55.00
2018-03-25T10:55:12.957Z,54.40
2018-03-25T10:57:40.476Z,53.30
2018-03-25T11:00:08.750Z,55.00
2018-03-25T11:02:37.018Z,54.00
2018-03-25T11:05:05.287Z,51.90
2018-03-25T11:07:33.572Z,51.70
2018-03-25T11:10:01.869Z,51.40
2018-03-25T11:12:29.348Z,51.30
2018-03-25T11:14:56.855Z,50.90
2018-03-25T11:17:25.201Z,50.40
2018-03-25T11:19:53.411Z,52.10
2018-03-25T11:22:21.669Z,51.70
2018-03-25T11:24:49.201Z,51.60
2018-03-25T11:27:16.674Z,49.50
2018-03-25T11:29:44.191Z,48.20
2018-03-25T11:32:11.694Z,48.30
2018-03-25T11:34:39.174Z,48.20
2018-03-25T11:37:06.720Z,46.70
2018-03-25T11:39:34.208Z,46.30
2018-03-25T11:42:02.887Z,43.60
2018-03-25T11:44:31.143Z,43.30
2018-03-25T11:46:58.639Z,43.30
2018-03-25T11:49:26.125Z,42.10
2018-03-25T11:51:53.642Z,42.00
2018-03-25T11:54:21.911Z,43.10
2018-03-25T11:56:50.182Z,43.70
2018-03-25T11:59:17.706Z,43.70
2018-03-25T12:01:45.210Z,40.20
2018-03-25T12:04:13.484Z,41.20
2018-03-25T12:06:41.756Z,40.50
2018-03-25T12:09:09.262Z,39.90
2018-03-25T12:11:36.732Z,39.00
2018-03-25T12:14:04.256Z,37.90
2018-03-25T12:16:32.480Z,37.80
2018-03-25T12:18:59.990Z,37.20
2018-03-25T12:21:27.472Z,37.40
2018-03-25T12:23:54.989Z,36.70
2018-03-25T12:26:23.250Z,32.50
2018-03-25T12:28:51.880Z,31.10
2018-03-25T12:31:19.365Z,31.70
2018-03-25T12:33:46.858Z,30.70
2018-03-25T12:36:14.360Z,28.90
2018-03-25T12:38:42.003Z,27.70
2018-03-25T12:41:09.460Z,26.00
2018-03-25T12:43:36.954Z,23.40
2018-03-25T12:46:04.466Z,22.20
2018-03-25T12:48:32.721Z,18.80
2018-03-25T12:51:00.222Z,18.70
2018-03-25T12:53:27.751Z,17.30
2018-03-25T12:55:55.989Z,15.70
2018-03-25T12:58:23.487Z,15.70
2018-03-25T13:00:51.803Z,16.40
2018-03-25T13:03:19.363Z,16.40
2018-03-25T13:05:46.983Z,14.20
2018-03-25T13:08:15.253Z,12.00
2018-03-25T13:10:42.738Z,11.90
2018-03-25T13:13:10.240Z,11.30
2018-03-25T13:15:37.719Z,11.00
2018-03-25T13:18:06.338Z,10.10
2018-03-25T13:20:33.843Z,10.50
2018-03-25T13:23:02.092Z,10.10
2018-03-25T13:25:29.587Z,10.00
2018-03-25T13:27:57.069Z,9.60
2018-03-25T13:30:25.411Z,9.90
2018-03-25T13:32:53.709Z,10.40
2018-03-25T13:35:21.228Z,10.30
2018-03-25T13:37:48.712Z,11.40
2018-03-25T13:40:16.188Z,11.10
2018-03-25T13:42:43.698Z,10.40
2018-03-25T13:45:11.220Z,11.00
2018-03-25T13:47:39.487Z,12.20
2018-03-25T13:50:06.992Z,12.20
2018-03-25T13:52:34.470Z,12.90
2018-03-25T13:55:01.958Z,13.10
2018-03-25T13:57:29.450Z,13.50
2018-03-25T13:59:57.014Z,13.60
2018-03-25T14:02:24.514Z,12.00
2018-03-25T14:04:52.030Z,12.00
2018-03-25T14:07:19.535Z,12.80
2018-03-25T14:09:47.028Z,11.70
2018-03-25T14:12:15.291Z,14.00
2018-03-25T14:14:43.540Z,16.10
2018-03-25T14:17:11.038Z,16.00
2018-03-25T14:19:39.340Z,18.60
2018-03-25T14:22:06.813Z,18.60
2018-03-25T14:24:35.105Z,20.10
2018-03-25T14:27:03.280Z,21.70
2018-03-25T14:29:30.787Z,23.10
2018-03-25T14:31:59.618Z,24.30
2018-03-25T14:34:27.124Z,24.20
2018-03-25T14:36:55.391Z,25.30
2018-03-25T14:39:23.675Z,25.30
2018-03-25T14:41:51.941Z,23.80
2018-03-25T14:44:19.478Z,23.80
2018-03-25T14:46:46.991Z,19.50
2018-03-25T14:49:14.513Z,16.50
2018-03-25T14:51:42.776Z,16.20
2018-03-25T14:54:10.640Z,16.20
2018-03-25T14:56:39.415Z,19.20
2018-03-25T14:59:06.922Z,19.20
2018-03-25T15:01:34.493Z,20.20
2018-03-25T15:04:01.990Z,21.50
2018-03-25T15:06:29.474Z,23.30
2018-03-25T15:08:56.954Z,23.50
2018-03-25T15:11:25.249Z,25.90
2018-03-25T15:13:52.742Z,25.80
2018-03-25T15:16:20.246Z,26.90
2018-03-25T15:18:48.481Z,28.60
2018-03-25T15:21:15.978Z,28.60
2018-03-25T15:23:43.473Z,28.40
2018-03-25T15:26:11.008Z,29.50
2018-03-25T15:28:38.496Z,29.80
2018-03-25T15:31:05.975Z,29.50
2018-03-25T15:33:33.471Z,30.00
2018-03-25T15:36:01.761Z,31.20
2018-03-25T15:38:29.258Z,31.10
2018-03-25T15:40:56.740Z,31.90
2018-03-25T15:43:24.285Z,32.00
2018-03-25T15:45:51.768Z,31.60
2018-03-25T15:48:19.329Z,32.00
2018-03-25T15:50:48.320Z,33.60
2018-03-25T15:53:15.853Z,33.60
2018-03-25T15:55:43.342Z,33.90
2018-03-25T15:58:10.882Z,34.10
2018-03-25T16:00:38.372Z,33.80
2018-03-25T16:03:05.886Z,34.40
2018-03-25T16:05:33.380Z,35.20
2018-03-25T16:08:01.663Z,35.30
2018-03-25T16:10:29.201Z,35.20
2018-03-25T16:12:56.694Z,36.40
2018-03-25T16:15:24.236Z,36.80
2018-03-25T16:17:51.772Z,37.00
2018-03-25T16:20:19.276Z,37.30
2018-03-25T16:22:46.763Z,37.70
2018-03-25T16:25:14.280Z,37.80
2018-03-25T16:27:42.515Z,38.70
2018-03-25T16:30:10.033Z,38.70
2018-03-25T16:32:37.544Z,39.20
2018-03-25T16:35:05.083Z,39.20
2018-03-25T16:37:32.573Z,40.10
2018-03-25T16:40:00.093Z,41.10
2018-03-25T16:42:28.963Z,41.70
2018-03-25T16:44:56.495Z,41.70
2018-03-25T16:47:25.267Z,43.50
2018-03-25T16:49:53.556Z,43.70
2018-03-25T16:52:21.820Z,43.90
2018-03-25T16:54:49.353Z,43.80
2018-03-25T16:57:16.931Z,44.00
2018-03-25T16:59:44.432Z,44.60
2018-03-25T17:02:11.952Z,45.10
2018-03-25T17:04:39.536Z,45.50
2018-03-25T17:07:08.615Z,46.70
2018-03-25T17:09:37.125Z,48.40
2018-03-25T17:12:04.641Z,48.40
2018-03-25T17:14:32.149Z,48.40
2018-03-25T17:16:59.676Z,48.00
2018-03-25T17:19:27.250Z,48.60
2018-03-25T17:21:54.778Z,49.60
2018-03-25T17:24:22.265Z,49.30
2018-03-25T17:26:50.538Z,48.80
2018-03-25T17:29:18.816Z,48.80
2018-03-25T17:31:46.348Z,48.80
2018-03-25T17:34:13.927Z,49.00
2018-03-25T17:36:41.596Z,49.10
2018-03-25T17:39:09.956Z,48.90
2018-03-25T17:41:38.248Z,49.40
2018-03-25T17:44:05.922Z,48.90
2018-03-25T17:46:33.437Z,49.50
2018-03-25T17:49:01.139Z,49.50
2018-03-25T17:51:28.785Z,49.80
2018-03-25T17:53:56.298Z,50.20
2018-03-25T17:56:23.797Z,53.00
2018-03-25T17:58:51.304Z,53.80
2018-03-25T18:01:18.795Z,54.40
2018-03-25T18:03:46.288Z,54.10
2018-03-25T18:06:15.310Z,54.80
2018-03-25T18:08:42.820Z,55.20
2018-03-25T18:11:13.128Z,55.00
2018-03-25T18:13:40.619Z,55.00
2018-03-25T18:16:08.933Z,55.70
2018-03-25T18:18:36.419Z,55.70
2018-03-25T18:21:04.540Z,56.20
2018-03-25T18:23:32.097Z,56.70
2018-03-25T18:25:59.658Z,57.20
2018-03-25T18:28:27.158Z,57.40
2018-03-25T18:30:54.730Z,58.10
2018-03-25T18:33:22.323Z,58.60
2018-03-25T18:35:49.808Z,58.50
2018-03-25T18:38:17.394Z,59.00
2018-03-25T18:40:44.883Z,59.20
2018-03-25T18:43:12.458Z,58.90
2018-03-25T18:45:40.781Z,58.80
2018-03-25T18:48:08.461Z,58.80
2018-03-25T18:50:35.964Z,59.00
2018-03-25T18:53:03.517Z,59.40
2018-03-25T18:55:31.794Z,60.50
2018-03-25T18:58:00.094Z,60.60
2018-03-25T19:00:27.805Z,61.30
2018-03-25T19:02:56.124Z,62.00
2018-03-25T19:05:23.933Z,62.00
2018-03-25T19:07:51.484Z,62.60
2018-03-25T19:10:19.001Z,62.90
2018-03-25T19:12:46.573Z,63.40
2018-03-25T19:15:14.181Z,63.40
2018-03-25T19:17:41.782Z,63.70
2018-03-25T19:20:09.394Z,64.00
2018-03-25T19:22:36.912Z,64.00
2018-03-25T19:25:04.496Z,64.20
2018-03-25T19:27:32.007Z,65.20
2018-03-25T19:29:59.560Z,66.80
2018-03-25T19:32:27.137Z,67.50
2018-03-25T19:34:54.823Z,67.90
2018-03-25T19:37:22.381Z,68.10
2018-03-25T19:39:49.892Z,68.10
2018-03-25T19:42:17.402Z,67.60
2018-03-25T19:44:44.941Z,67.00
2018-03-25T19:47:13.608Z,67.20
2018-03-25T19:49:41.131Z,67.10
2018-03-25T19:52:08.637Z,67.40
2018-03-25T19:54:37.276Z,67.30
2018-03-25T19:57:04.802Z,67.20
2018-03-25T19:59:32.390Z,67.00
2018-03-25T20:02:00.194Z,67.20
2018-03-25T20:04:28.958Z,68.00
2018-03-25T20:06:56.646Z,67.90
2018-03-25T20:09:26.079Z,67.30
2018-03-25T20:11:53.636Z,67.20
2018-03-25T20:14:21.163Z,67.20
2018-03-25T20:16:48.819Z,67.40
2018-03-25T20:19:16.308Z,67.70
2018-03-25T20:21:44.566Z,69.10
2018-03-25T20:24:12.878Z,69.00
2018-03-25T20:26:40.468Z,69.00
2018-03-25T20:29:07.971Z,69.00
2018-03-25T20:31:35.508Z,69.20
2018-03-25T20:34:03.044Z,69.60
2018-03-25T20:36:30.603Z,69.40
2018-03-25T20:38:58.108Z,70.20
2018-03-25T20:41:26.397Z,70.80
2018-03-25T20:43:54.690Z,71.00
2018-03-25T20:46:22.180Z,71.00
2018-03-25T20:48:49.692Z,71.30
2018-03-25T20:51:17.958Z,71.20
2018-03-25T20:53:46.236Z,70.90
2018-03-25T20:56:14.494Z,70.90
2018-03-25T20:58:42.007Z,70.80
2018-03-25T21:01:09.819Z,71.30
2018-03-25T21:03:37.334Z,71.20
2018-03-25T21:06:04.847Z,71.50
2018-03-25T21:08:33.105Z,71.20
2018-03-25T21:11:00.627Z,71.30
2018-03-25T21:13:28.111Z,71.30
2018-03-25T21:15:55.625Z,71.50
2018-03-25T21:18:23.166Z,72.00
2018-03-25T21:20:51.414Z,72.40
2018-03-25T21:23:18.901Z,72.30
2018-03-25T21:25:47.187Z,72.50
2018-03-25T21:28:14.699Z,72.50
2018-03-25T21:30:42.216Z,73.10
2018-03-25T21:33:09.720Z,73.50
2018-03-25T21:35:37.222Z,73.50
2018-03-25T21:38:04.763Z,74.00
2018-03-25T21:40:33.022Z,74.40
2018-03-25T21:43:00.511Z,74.40
2018-03-25T21:45:27.998Z,74.90
2018-03-25T21:47:55.515Z,75.30
2018-03-25T21:50:23.752Z,75.60
2018-03-25T21:52:51.244Z,75.60
2018-03-25T21:55:19.501Z,75.80
2018-03-25T21:57:47.011Z,75.70
2018-03-25T22:00:14.511Z,76.20
2018-03-25T22:02:41.995Z,76.80
2018-03-25T22:05:10.241Z,77.20
2018-03-25T22:07:37.717Z,77.80
2018-03-25T22:10:05.206Z,77.20
2018-03-25T22:12:32.678Z,77.30
2018-03-25T22:15:00.167Z,77.50
2018-03-25T22:17:27.694Z,78.20
2018-03-25T22:19:55.188Z,78.80
2018-03-25T22:22:22.734Z,78.80
2018-03-25T22:24:50.260Z,78.60
2018-03-25T22:27:17.752Z,78.40
2018-03-25T22:29:45.223Z,78.60
2018-03-25T22:32:12.780Z,78.70
2018-03-25T22:34:40.208Z,79.90
2018-03-25T22:37:07.669Z,79.40
2018-03-25T22:39:35.174Z,79.60
2018-03-25T22:42:02.627Z,79.80
2018-03-25T22:44:30.145Z,79.80
2018-03-25T22:46:57.631Z,80.30
2018-03-25T22:49:25.194Z,80.70
2018-03-25T22:51:52.642Z,80.70
2018-03-25T22:54:20.135Z,80.70
2018-03-25T22:56:48.378Z,81.70
2018-03-25T22:59:15.882Z,81.70
2018-03-25T23:01:44.107Z,82.10
2018-03-25T23:04:11.606Z,82.00
2018-03-25T23:06:39.843Z,82.30
2018-03-25T23:09:07.340Z,82.30
2018-03-25T23:11:35.612Z,82.30
2018-03-25T23:14:03.863Z,82.40
2018-03-25T23:16:31.346Z,82.30
2018-03-25T23:18:59.576Z,82.70
2018-03-25T23:21:27.079Z,82.70
2018-03-25T23:23:55.310Z,83.00
2018-03-25T23:26:22.811Z,82.80
2018-03-25T23:28:51.110Z,83.30
2018-03-25T23:31:18.573Z,83.30
2018-03-25T23:33:46.060Z,83.50
2018-03-25T23:36:13.546Z,83.70
2018-03-25T23:38:41.035Z,83.80
2018-03-25T23:41:09.263Z,83.30
2018-03-25T23:43:36.770Z,83.30
2018-03-25T23:46:04.279Z,82.90
2018-03-25T23:48:31.766Z,82.90
2018-03-25T23:51:00.004Z,83.30
2018-03-25T23:53:27.497Z,83.30
2018-03-25T23:55:55.736Z,83.50
2018-03-25T23:58:23.214Z,83.40
